sensor_id;sensor_type;location;lat;lon;timestamp;P1;durP1;ratioP1;P2;durP2;ratioP2
60038;SDS011;45916;52.734;6.544;2023-05-07T00:00:00;22.40;;;20.00;;
60038;SDS011;45916;52.734;6.544;2023-05-07T00:02:26;23.45;;;20.25;;
60038;SDS011;45916;52.734;6.544;2023-05-07T00:04:51;21.67;;;19.38;;
60038;SDS011;45916;52.734;6.544;2023-05-07T00:07:17;24.20;;;19.67;;
60038;SDS011;45916;52.734;6.544;2023-05-07T00:09:43;21.95;;;18.70;;
60038;SDS011;45916;52.734;6.544;2023-05-07T00:12:09;22.05;;;18.27;;
60038;SDS011;45916;52.734;6.544;2023-05-07T00:14:35;21.23;;;17.95;;
60038;SDS011;45916;52.734;6.544;2023-05-07T00:17:01;22.70;;;19.02;;
60038;SDS011;45916;52.734;6.544;2023-05-07T00:19:27;23.02;;;18.15;;
60038;SDS011;45916;52.734;6.544;2023-05-07T00:21:53;22.05;;;18.60;;
60038;SDS011;45916;52.734;6.544;2023-05-07T00:24:19;20.30;;;17.80;;
60038;SDS011;45916;52.734;6.544;2023-05-07T00:26:45;21.00;;;17.25;;
60038;SDS011;45916;52.734;6.544;2023-05-07T00:29:10;23.45;;;18.85;;
60038;SDS011;45916;52.734;6.544;2023-05-07T00:31:36;21.42;;;17.13;;
60038;SDS011;45916;52.734;6.544;2023-05-07T00:34:02;20.50;;;18.10;;
60038;SDS011;45916;52.734;6.544;2023-05-07T00:36:28;22.75;;;18.88;;
60038;SDS011;45916;52.734;6.544;2023-05-07T00:38:54;23.08;;;19.30;;
60038;SDS011;45916;52.734;6.544;2023-05-07T00:41:22;20.90;;;18.63;;
60038;SDS011;45916;52.734;6.544;2023-05-07T00:43:47;21.90;;;19.38;;
60038;SDS011;45916;52.734;6.544;2023-05-07T00:46:13;21.13;;;17.88;;
60038;SDS011;45916;52.734;6.544;2023-05-07T00:48:40;22.67;;;20.02;;
60038;SDS011;45916;52.734;6.544;2023-05-07T00:51:06;22.42;;;19.35;;
60038;SDS011;45916;52.734;6.544;2023-05-07T00:53:32;21.75;;;19.55;;
60038;SDS011;45916;52.734;6.544;2023-05-07T00:55:58;22.08;;;19.58;;
60038;SDS011;45916;52.734;6.544;2023-05-07T00:58:25;21.48;;;19.17;;
60038;SDS011;45916;52.734;6.544;2023-05-07T01:00:51;24.17;;;20.67;;
60038;SDS011;45916;52.734;6.544;2023-05-07T01:03:17;22.98;;;20.48;;
60038;SDS011;45916;52.734;6.544;2023-05-07T01:05:43;23.48;;;19.63;;
60038;SDS011;45916;52.734;6.544;2023-05-07T01:08:11;23.88;;;20.90;;
60038;SDS011;45916;52.734;6.544;2023-05-07T01:10:38;22.95;;;20.45;;
60038;SDS011;45916;52.734;6.544;2023-05-07T01:13:10;24.60;;;22.00;;
60038;SDS011;45916;52.734;6.544;2023-05-07T01:15:38;25.15;;;20.77;;
60038;SDS011;45916;52.734;6.544;2023-05-07T01:18:06;26.20;;;22.98;;
60038;SDS011;45916;52.734;6.544;2023-05-07T01:20:32;27.45;;;24.50;;
60038;SDS011;45916;52.734;6.544;2023-05-07T01:22:58;28.25;;;24.38;;
60038;SDS011;45916;52.734;6.544;2023-05-07T01:25:25;26.98;;;24.02;;
60038;SDS011;45916;52.734;6.544;2023-05-07T01:27:51;32.08;;;26.73;;
60038;SDS011;45916;52.734;6.544;2023-05-07T01:30:17;29.85;;;26.05;;
60038;SDS011;45916;52.734;6.544;2023-05-07T01:35:27;29.83;;;26.70;;
60038;SDS011;45916;52.734;6.544;2023-05-07T01:37:57;29.95;;;26.70;;
60038;SDS011;45916;52.734;6.544;2023-05-07T01:40:23;31.58;;;28.17;;
60038;SDS011;45916;52.734;6.544;2023-05-07T01:42:49;31.40;;;28.05;;
60038;SDS011;45916;52.734;6.544;2023-05-07T01:45:15;31.42;;;26.90;;
60038;SDS011;45916;52.734;6.544;2023-05-07T01:47:41;30.02;;;26.85;;
60038;SDS011;45916;52.734;6.544;2023-05-07T01:50:08;36.08;;;28.60;;
60038;SDS011;45916;52.734;6.544;2023-05-07T01:52:36;34.03;;;28.60;;
60038;SDS011;45916;52.734;6.544;2023-05-07T01:55:05;32.95;;;28.50;;
60038;SDS011;45916;52.734;6.544;2023-05-07T01:57:31;31.65;;;27.67;;
60038;SDS011;45916;52.734;6.544;2023-05-07T01:59:57;32.83;;;28.20;;
60038;SDS011;45916;52.734;6.544;2023-05-07T02:02:22;31.83;;;28.42;;
60038;SDS011;45916;52.734;6.544;2023-05-07T02:04:48;33.60;;;28.00;;
60038;SDS011;45916;52.734;6.544;2023-05-07T02:07:14;39.13;;;30.42;;
60038;SDS011;45916;52.734;6.544;2023-05-07T02:09:40;32.58;;;29.02;;
60038;SDS011;45916;52.734;6.544;2023-05-07T02:12:05;31.63;;;28.30;;
60038;SDS011;45916;52.734;6.544;2023-05-07T02:14:31;32.78;;;29.25;;
60038;SDS011;45916;52.734;6.544;2023-05-07T02:16:57;33.63;;;29.02;;
60038;SDS011;45916;52.734;6.544;2023-05-07T02:19:22;33.20;;;29.17;;
60038;SDS011;45916;52.734;6.544;2023-05-07T02:21:48;33.60;;;29.88;;
60038;SDS011;45916;52.734;6.544;2023-05-07T02:24:14;35.33;;;30.75;;
60038;SDS011;45916;52.734;6.544;2023-05-07T02:26:40;33.25;;;29.65;;
60038;SDS011;45916;52.734;6.544;2023-05-07T02:29:06;35.47;;;30.05;;
60038;SDS011;45916;52.734;6.544;2023-05-07T02:31:32;36.92;;;31.05;;
60038;SDS011;45916;52.734;6.544;2023-05-07T02:33:59;33.78;;;30.10;;
60038;SDS011;45916;52.734;6.544;2023-05-07T02:36:25;35.85;;;31.40;;
60038;SDS011;45916;52.734;6.544;2023-05-07T02:38:51;38.15;;;31.92;;
60038;SDS011;45916;52.734;6.544;2023-05-07T02:41:17;40.85;;;31.40;;
60038;SDS011;45916;52.734;6.544;2023-05-07T02:43:43;38.60;;;32.58;;
60038;SDS011;45916;52.734;6.544;2023-05-07T02:46:09;36.50;;;32.53;;
60038;SDS011;45916;52.734;6.544;2023-05-07T02:48:35;42.05;;;32.47;;
60038;SDS011;45916;52.734;6.544;2023-05-07T02:51:01;42.00;;;32.00;;
60038;SDS011;45916;52.734;6.544;2023-05-07T02:53:28;39.15;;;32.60;;
60038;SDS011;45916;52.734;6.544;2023-05-07T02:55:57;39.78;;;34.08;;
60038;SDS011;45916;52.734;6.544;2023-05-07T02:58:24;40.88;;;33.63;;
60038;SDS011;45916;52.734;6.544;2023-05-07T03:00:50;36.88;;;32.25;;
60038;SDS011;45916;52.734;6.544;2023-05-07T03:03:16;43.42;;;34.70;;
60038;SDS011;45916;52.734;6.544;2023-05-07T03:05:42;45.75;;;35.40;;
60038;SDS011;45916;52.734;6.544;2023-05-07T03:08:08;44.47;;;36.67;;
60038;SDS011;45916;52.734;6.544;2023-05-07T03:10:34;43.88;;;35.33;;
60038;SDS011;45916;52.734;6.544;2023-05-07T03:13:01;46.25;;;36.92;;
60038;SDS011;45916;52.734;6.544;2023-05-07T03:15:26;39.78;;;34.85;;
60038;SDS011;45916;52.734;6.544;2023-05-07T03:17:52;41.70;;;35.13;;
60038;SDS011;45916;52.734;6.544;2023-05-07T03:20:18;47.13;;;36.95;;
60038;SDS011;45916;52.734;6.544;2023-05-07T03:22:44;43.38;;;36.35;;
60038;SDS011;45916;52.734;6.544;2023-05-07T03:25:09;48.15;;;38.10;;
60038;SDS011;45916;52.734;6.544;2023-05-07T03:27:35;47.50;;;38.45;;
60038;SDS011;45916;52.734;6.544;2023-05-07T03:30:01;45.42;;;36.70;;
60038;SDS011;45916;52.734;6.544;2023-05-07T03:32:26;49.55;;;39.25;;
60038;SDS011;45916;52.734;6.544;2023-05-07T03:34:52;46.90;;;37.83;;
60038;SDS011;45916;52.734;6.544;2023-05-07T03:37:18;50.13;;;39.60;;
60038;SDS011;45916;52.734;6.544;2023-05-07T03:39:44;48.42;;;39.17;;
60038;SDS011;45916;52.734;6.544;2023-05-07T03:42:10;50.33;;;40.83;;
60038;SDS011;45916;52.734;6.544;2023-05-07T03:44:35;51.55;;;40.53;;
60038;SDS011;45916;52.734;6.544;2023-05-07T03:47:01;50.72;;;41.50;;
60038;SDS011;45916;52.734;6.544;2023-05-07T03:49:27;50.53;;;40.35;;
60038;SDS011;45916;52.734;6.544;2023-05-07T03:51:53;55.13;;;42.30;;
60038;SDS011;45916;52.734;6.544;2023-05-07T03:54:19;52.80;;;40.53;;
60038;SDS011;45916;52.734;6.544;2023-05-07T03:56:44;56.20;;;42.85;;
60038;SDS011;45916;52.734;6.544;2023-05-07T03:59:10;54.88;;;42.65;;
60038;SDS011;45916;52.734;6.544;2023-05-07T04:01:36;54.55;;;43.00;;
60038;SDS011;45916;52.734;6.544;2023-05-07T04:04:02;57.17;;;43.70;;
60038;SDS011;45916;52.734;6.544;2023-05-07T04:06:29;55.08;;;43.60;;
60038;SDS011;45916;52.734;6.544;2023-05-07T04:08:55;49.03;;;41.60;;
60038;SDS011;45916;52.734;6.544;2023-05-07T04:11:21;54.03;;;41.38;;
60038;SDS011;45916;52.734;6.544;2023-05-07T04:13:46;52.75;;;42.08;;
60038;SDS011;45916;52.734;6.544;2023-05-07T04:16:12;55.58;;;43.00;;
60038;SDS011;45916;52.734;6.544;2023-05-07T04:18:38;54.08;;;42.13;;
60038;SDS011;45916;52.734;6.544;2023-05-07T04:21:04;54.47;;;43.47;;
60038;SDS011;45916;52.734;6.544;2023-05-07T04:23:30;54.22;;;43.25;;
60038;SDS011;45916;52.734;6.544;2023-05-07T04:25:55;55.22;;;43.75;;
60038;SDS011;45916;52.734;6.544;2023-05-07T04:28:22;55.03;;;42.33;;
60038;SDS011;45916;52.734;6.544;2023-05-07T04:30:48;56.10;;;44.55;;
60038;SDS011;45916;52.734;6.544;2023-05-07T04:33:14;53.47;;;42.42;;
60038;SDS011;45916;52.734;6.544;2023-05-07T04:35:43;55.95;;;42.17;;
60038;SDS011;45916;52.734;6.544;2023-05-07T04:38:09;51.72;;;42.65;;
60038;SDS011;45916;52.734;6.544;2023-05-07T04:40:38;49.20;;;39.67;;
60038;SDS011;45916;52.734;6.544;2023-05-07T04:43:04;51.75;;;41.60;;
60038;SDS011;45916;52.734;6.544;2023-05-07T04:45:29;52.78;;;41.92;;
60038;SDS011;45916;52.734;6.544;2023-05-07T04:47:55;52.83;;;41.20;;
60038;SDS011;45916;52.734;6.544;2023-05-07T04:50:21;47.50;;;39.67;;
60038;SDS011;45916;52.734;6.544;2023-05-07T04:52:49;51.92;;;39.78;;
60038;SDS011;45916;52.734;6.544;2023-05-07T04:55:15;50.75;;;40.45;;
60038;SDS011;45916;52.734;6.544;2023-05-07T04:57:41;44.92;;;38.58;;
60038;SDS011;45916;52.734;6.544;2023-05-07T05:00:07;47.38;;;38.42;;
60038;SDS011;45916;52.734;6.544;2023-05-07T05:02:36;51.72;;;40.95;;
60038;SDS011;45916;52.734;6.544;2023-05-07T05:05:02;44.60;;;36.72;;
60038;SDS011;45916;52.734;6.544;2023-05-07T05:07:28;49.00;;;39.20;;
60038;SDS011;45916;52.734;6.544;2023-05-07T05:09:54;46.75;;;38.95;;
60038;SDS011;45916;52.734;6.544;2023-05-07T05:12:20;42.08;;;35.53;;
60038;SDS011;45916;52.734;6.544;2023-05-07T05:14:46;47.13;;;37.53;;
60038;SDS011;45916;52.734;6.544;2023-05-07T05:17:12;44.58;;;37.83;;
60038;SDS011;45916;52.734;6.544;2023-05-07T05:19:37;43.92;;;37.30;;
60038;SDS011;45916;52.734;6.544;2023-05-07T05:22:03;44.25;;;36.33;;
60038;SDS011;45916;52.734;6.544;2023-05-07T05:24:30;44.65;;;36.83;;
60038;SDS011;45916;52.734;6.544;2023-05-07T05:26:56;44.30;;;35.50;;
60038;SDS011;45916;52.734;6.544;2023-05-07T05:29:21;43.13;;;34.42;;
60038;SDS011;45916;52.734;6.544;2023-05-07T05:31:47;41.75;;;33.33;;
60038;SDS011;45916;52.734;6.544;2023-05-07T05:34:13;43.75;;;35.53;;
60038;SDS011;45916;52.734;6.544;2023-05-07T05:36:39;43.67;;;35.05;;
60038;SDS011;45916;52.734;6.544;2023-05-07T05:39:04;43.28;;;34.88;;
60038;SDS011;45916;52.734;6.544;2023-05-07T05:41:31;42.33;;;35.45;;
60038;SDS011;45916;52.734;6.544;2023-05-07T05:43:56;43.35;;;33.78;;
60038;SDS011;45916;52.734;6.544;2023-05-07T05:46:22;39.55;;;33.83;;
60038;SDS011;45916;52.734;6.544;2023-05-07T05:48:48;42.17;;;35.45;;
60038;SDS011;45916;52.734;6.544;2023-05-07T05:51:13;39.90;;;33.25;;
60038;SDS011;45916;52.734;6.544;2023-05-07T05:53:39;41.10;;;34.90;;
60038;SDS011;45916;52.734;6.544;2023-05-07T05:56:05;40.63;;;34.38;;
60038;SDS011;45916;52.734;6.544;2023-05-07T05:58:31;39.55;;;33.22;;
60038;SDS011;45916;52.734;6.544;2023-05-07T06:00:57;40.47;;;32.88;;
60038;SDS011;45916;52.734;6.544;2023-05-07T06:03:23;41.03;;;33.83;;
60038;SDS011;45916;52.734;6.544;2023-05-07T06:05:49;39.85;;;34.17;;
60038;SDS011;45916;52.734;6.544;2023-05-07T06:08:15;39.17;;;34.03;;
60038;SDS011;45916;52.734;6.544;2023-05-07T06:10:40;43.15;;;34.92;;
60038;SDS011;45916;52.734;6.544;2023-05-07T06:13:06;39.85;;;34.00;;
60038;SDS011;45916;52.734;6.544;2023-05-07T06:15:32;40.42;;;34.10;;
60038;SDS011;45916;52.734;6.544;2023-05-07T06:17:58;39.70;;;32.97;;
60038;SDS011;45916;52.734;6.544;2023-05-07T06:20:24;41.30;;;33.47;;
60038;SDS011;45916;52.734;6.544;2023-05-07T06:22:49;39.88;;;33.72;;
60038;SDS011;45916;52.734;6.544;2023-05-07T06:25:15;44.15;;;36.45;;
60038;SDS011;45916;52.734;6.544;2023-05-07T06:27:41;44.22;;;35.83;;
60038;SDS011;45916;52.734;6.544;2023-05-07T06:30:07;40.30;;;33.47;;
60038;SDS011;45916;52.734;6.544;2023-05-07T06:32:33;41.92;;;35.72;;
60038;SDS011;45916;52.734;6.544;2023-05-07T06:34:58;43.50;;;36.30;;
60038;SDS011;45916;52.734;6.544;2023-05-07T06:37:25;46.50;;;37.58;;
60038;SDS011;45916;52.734;6.544;2023-05-07T06:39:50;43.72;;;36.17;;
60038;SDS011;45916;52.734;6.544;2023-05-07T06:42:16;44.13;;;36.22;;
60038;SDS011;45916;52.734;6.544;2023-05-07T06:44:42;44.45;;;36.22;;
60038;SDS011;45916;52.734;6.544;2023-05-07T06:47:07;43.25;;;36.67;;
60038;SDS011;45916;52.734;6.544;2023-05-07T06:49:33;43.72;;;36.47;;
60038;SDS011;45916;52.734;6.544;2023-05-07T06:51:59;41.92;;;36.40;;
60038;SDS011;45916;52.734;6.544;2023-05-07T06:54:24;43.72;;;35.90;;
60038;SDS011;45916;52.734;6.544;2023-05-07T06:56:50;46.90;;;37.03;;
60038;SDS011;45916;52.734;6.544;2023-05-07T06:59:16;39.63;;;34.38;;
60038;SDS011;45916;52.734;6.544;2023-05-07T07:01:41;41.85;;;35.25;;
60038;SDS011;45916;52.734;6.544;2023-05-07T07:04:07;40.53;;;36.00;;
60038;SDS011;45916;52.734;6.544;2023-05-07T07:06:33;42.08;;;33.80;;
60038;SDS011;45916;52.734;6.544;2023-05-07T07:08:59;41.22;;;34.50;;
60038;SDS011;45916;52.734;6.544;2023-05-07T07:11:25;39.40;;;34.38;;
60038;SDS011;45916;52.734;6.544;2023-05-07T07:13:50;39.78;;;35.17;;
60038;SDS011;45916;52.734;6.544;2023-05-07T07:16:16;38.38;;;33.10;;
60038;SDS011;45916;52.734;6.544;2023-05-07T07:18:42;34.55;;;30.80;;
60038;SDS011;45916;52.734;6.544;2023-05-07T07:21:07;36.58;;;32.13;;
60038;SDS011;45916;52.734;6.544;2023-05-07T07:23:33;34.90;;;30.95;;
60038;SDS011;45916;52.734;6.544;2023-05-07T07:25:59;35.67;;;31.85;;
60038;SDS011;45916;52.734;6.544;2023-05-07T07:28:25;34.53;;;30.92;;
60038;SDS011;45916;52.734;6.544;2023-05-07T07:30:50;36.58;;;31.67;;
60038;SDS011;45916;52.734;6.544;2023-05-07T07:33:16;34.65;;;30.23;;
60038;SDS011;45916;52.734;6.544;2023-05-07T07:35:42;36.38;;;30.98;;
60038;SDS011;45916;52.734;6.544;2023-05-07T07:38:07;35.17;;;30.95;;
60038;SDS011;45916;52.734;6.544;2023-05-07T07:40:36;35.72;;;31.48;;
60038;SDS011;45916;52.734;6.544;2023-05-07T07:43:02;34.42;;;30.80;;
60038;SDS011;45916;52.734;6.544;2023-05-07T07:45:28;37.13;;;32.35;;
60038;SDS011;45916;52.734;6.544;2023-05-07T07:47:54;37.47;;;31.58;;
60038;SDS011;45916;52.734;6.544;2023-05-07T07:50:19;35.85;;;31.15;;
60038;SDS011;45916;52.734;6.544;2023-05-07T07:52:45;35.45;;;29.85;;
60038;SDS011;45916;52.734;6.544;2023-05-07T07:55:11;34.92;;;31.20;;
60038;SDS011;45916;52.734;6.544;2023-05-07T07:57:37;34.70;;;31.00;;
60038;SDS011;45916;52.734;6.544;2023-05-07T08:00:03;36.50;;;32.58;;
60038;SDS011;45916;52.734;6.544;2023-05-07T08:02:31;36.65;;;31.98;;
60038;SDS011;45916;52.734;6.544;2023-05-07T08:04:56;38.75;;;32.30;;
60038;SDS011;45916;52.734;6.544;2023-05-07T08:07:22;36.95;;;32.78;;
60038;SDS011;45916;52.734;6.544;2023-05-07T08:09:48;39.20;;;31.63;;
60038;SDS011;45916;52.734;6.544;2023-05-07T08:12:14;36.10;;;32.13;;
60038;SDS011;45916;52.734;6.544;2023-05-07T08:14:40;33.85;;;29.98;;
60038;SDS011;45916;52.734;6.544;2023-05-07T08:17:06;35.35;;;31.02;;
60038;SDS011;45916;52.734;6.544;2023-05-07T08:19:32;37.33;;;32.63;;
60038;SDS011;45916;52.734;6.544;2023-05-07T08:21:57;35.55;;;31.75;;
60038;SDS011;45916;52.734;6.544;2023-05-07T08:24:23;35.40;;;31.70;;
60038;SDS011;45916;52.734;6.544;2023-05-07T08:26:49;36.78;;;31.35;;
60038;SDS011;45916;52.734;6.544;2023-05-07T08:29:15;34.50;;;30.50;;
60038;SDS011;45916;52.734;6.544;2023-05-07T08:31:40;34.50;;;30.80;;
60038;SDS011;45916;52.734;6.544;2023-05-07T08:34:06;36.38;;;31.75;;
60038;SDS011;45916;52.734;6.544;2023-05-07T08:36:32;35.80;;;32.00;;
60038;SDS011;45916;52.734;6.544;2023-05-07T08:38:59;37.17;;;31.55;;
60038;SDS011;45916;52.734;6.544;2023-05-07T08:41:25;35.00;;;31.20;;
60038;SDS011;45916;52.734;6.544;2023-05-07T08:43:51;34.78;;;30.42;;
60038;SDS011;45916;52.734;6.544;2023-05-07T08:46:17;34.90;;;30.58;;
60038;SDS011;45916;52.734;6.544;2023-05-07T08:48:44;35.88;;;31.17;;
60038;SDS011;45916;52.734;6.544;2023-05-07T08:51:13;35.40;;;31.13;;
60038;SDS011;45916;52.734;6.544;2023-05-07T08:53:40;33.77;;;30.13;;
60038;SDS011;45916;52.734;6.544;2023-05-07T08:56:08;31.38;;;28.02;;
60038;SDS011;45916;52.734;6.544;2023-05-07T08:58:34;31.70;;;28.30;;
60038;SDS011;45916;52.734;6.544;2023-05-07T09:01:03;30.25;;;27.02;;
60038;SDS011;45916;52.734;6.544;2023-05-07T09:03:37;32.42;;;28.98;;
60038;SDS011;45916;52.734;6.544;2023-05-07T09:06:04;31.05;;;27.70;;
60038;SDS011;45916;52.734;6.544;2023-05-07T09:08:32;29.85;;;26.92;;
60038;SDS011;45916;52.734;6.544;2023-05-07T09:10:59;31.98;;;28.70;;
60038;SDS011;45916;52.734;6.544;2023-05-07T09:13:25;28.50;;;25.50;;
60038;SDS011;45916;52.734;6.544;2023-05-07T09:15:51;30.27;;;27.08;;
60038;SDS011;45916;52.734;6.544;2023-05-07T09:18:17;29.88;;;26.60;;
60038;SDS011;45916;52.734;6.544;2023-05-07T09:20:43;29.85;;;26.80;;
60038;SDS011;45916;52.734;6.544;2023-05-07T09:23:09;29.90;;;27.00;;
60038;SDS011;45916;52.734;6.544;2023-05-07T09:25:35;29.42;;;26.45;;
60038;SDS011;45916;52.734;6.544;2023-05-07T09:28:02;30.08;;;27.17;;
60038;SDS011;45916;52.734;6.544;2023-05-07T09:30:29;29.38;;;26.33;;
60038;SDS011;45916;52.734;6.544;2023-05-07T09:32:56;29.23;;;26.40;;
60038;SDS011;45916;52.734;6.544;2023-05-07T09:35:26;29.77;;;26.88;;
60038;SDS011;45916;52.734;6.544;2023-05-07T09:37:55;29.65;;;26.60;;
60038;SDS011;45916;52.734;6.544;2023-05-07T09:40:29;29.23;;;26.30;;
60038;SDS011;45916;52.734;6.544;2023-05-07T09:42:56;27.67;;;25.08;;
60038;SDS011;45916;52.734;6.544;2023-05-07T09:45:32;29.27;;;26.45;;
60038;SDS011;45916;52.734;6.544;2023-05-07T09:47:58;26.60;;;23.92;;
60038;SDS011;45916;52.734;6.544;2023-05-07T09:50:26;29.42;;;26.27;;
60038;SDS011;45916;52.734;6.544;2023-05-07T09:52:55;28.55;;;25.63;;
60038;SDS011;45916;52.734;6.544;2023-05-07T09:55:21;30.95;;;27.88;;
60038;SDS011;45916;52.734;6.544;2023-05-07T09:57:51;31.25;;;28.08;;
60038;SDS011;45916;52.734;6.544;2023-05-07T10:00:18;28.95;;;25.88;;
60038;SDS011;45916;52.734;6.544;2023-05-07T10:02:50;28.92;;;25.85;;
60038;SDS011;45916;52.734;6.544;2023-05-07T10:05:20;29.55;;;26.65;;
60038;SDS011;45916;52.734;6.544;2023-05-07T10:07:47;28.23;;;25.50;;
60038;SDS011;45916;52.734;6.544;2023-05-07T10:10:14;27.00;;;24.38;;
60038;SDS011;45916;52.734;6.544;2023-05-07T10:12:43;28.00;;;25.20;;
60038;SDS011;45916;52.734;6.544;2023-05-07T10:15:10;27.20;;;24.42;;
60038;SDS011;45916;52.734;6.544;2023-05-07T10:17:37;26.92;;;24.38;;
60038;SDS011;45916;52.734;6.544;2023-05-07T10:20:04;27.98;;;25.17;;
60038;SDS011;45916;52.734;6.544;2023-05-07T10:22:52;26.33;;;23.73;;
60038;SDS011;45916;52.734;6.544;2023-05-07T10:25:23;29.60;;;26.75;;
60038;SDS011;45916;52.734;6.544;2023-05-07T10:27:53;28.02;;;25.23;;
60038;SDS011;45916;52.734;6.544;2023-05-07T10:32:51;26.85;;;24.33;;
60038;SDS011;45916;52.734;6.544;2023-05-07T10:35:25;27.02;;;24.42;;
60038;SDS011;45916;52.734;6.544;2023-05-07T10:37:54;27.58;;;24.80;;
60038;SDS011;45916;52.734;6.544;2023-05-07T10:40:20;27.50;;;24.80;;
60038;SDS011;45916;52.734;6.544;2023-05-07T10:42:53;28.25;;;25.48;;
60038;SDS011;45916;52.734;6.544;2023-05-07T10:45:26;25.73;;;23.33;;
60038;SDS011;45916;52.734;6.544;2023-05-07T10:55:48;24.85;;;22.25;;
60038;SDS011;45916;52.734;6.544;2023-05-07T10:58:34;25.85;;;23.38;;
60038;SDS011;45916;52.734;6.544;2023-05-07T11:01:02;25.73;;;23.05;;
60038;SDS011;45916;52.734;6.544;2023-05-07T11:03:28;25.60;;;23.08;;
60038;SDS011;45916;52.734;6.544;2023-05-07T11:11:18;28.23;;;25.42;;
60038;SDS011;45916;52.734;6.544;2023-05-07T11:13:45;27.23;;;24.67;;
60038;SDS011;45916;52.734;6.544;2023-05-07T11:16:19;26.90;;;24.30;;
60038;SDS011;45916;52.734;6.544;2023-05-07T11:18:55;27.95;;;25.25;;
60038;SDS011;45916;52.734;6.544;2023-05-07T11:21:31;27.80;;;25.05;;
60038;SDS011;45916;52.734;6.544;2023-05-07T11:24:05;27.20;;;24.40;;
60038;SDS011;45916;52.734;6.544;2023-05-07T11:26:45;27.35;;;24.63;;
60038;SDS011;45916;52.734;6.544;2023-05-07T11:29:17;25.98;;;23.35;;
60038;SDS011;45916;52.734;6.544;2023-05-07T11:31:46;25.88;;;23.05;;
60038;SDS011;45916;52.734;6.544;2023-05-07T11:34:20;25.55;;;22.80;;
60038;SDS011;45916;52.734;6.544;2023-05-07T11:36:50;26.77;;;24.08;;
60038;SDS011;45916;52.734;6.544;2023-05-07T11:39:29;26.15;;;23.58;;
60038;SDS011;45916;52.734;6.544;2023-05-07T11:42:00;26.15;;;23.60;;
60038;SDS011;45916;52.734;6.544;2023-05-07T11:44:45;28.55;;;25.67;;
60038;SDS011;45916;52.734;6.544;2023-05-07T11:47:16;26.30;;;23.73;;
60038;SDS011;45916;52.734;6.544;2023-05-07T11:49:43;26.52;;;23.83;;
60038;SDS011;45916;52.734;6.544;2023-05-07T11:52:13;27.45;;;24.55;;
60038;SDS011;45916;52.734;6.544;2023-05-07T11:54:38;26.77;;;23.92;;
60038;SDS011;45916;52.734;6.544;2023-05-07T11:57:04;26.27;;;23.67;;
60038;SDS011;45916;52.734;6.544;2023-05-07T11:59:39;24.67;;;22.17;;
60038;SDS011;45916;52.734;6.544;2023-05-07T12:02:09;27.92;;;25.08;;
60038;SDS011;45916;52.734;6.544;2023-05-07T12:04:35;27.45;;;24.75;;
60038;SDS011;45916;52.734;6.544;2023-05-07T12:07:02;26.23;;;23.38;;
60038;SDS011;45916;52.734;6.544;2023-05-07T12:09:28;25.35;;;22.83;;
60038;SDS011;45916;52.734;6.544;2023-05-07T12:11:54;27.05;;;24.27;;
60038;SDS011;45916;52.734;6.544;2023-05-07T12:14:21;28.00;;;25.02;;
60038;SDS011;45916;52.734;6.544;2023-05-07T12:16:52;26.70;;;23.88;;
60038;SDS011;45916;52.734;6.544;2023-05-07T12:19:18;26.70;;;24.00;;
60038;SDS011;45916;52.734;6.544;2023-05-07T12:21:44;25.55;;;23.05;;
60038;SDS011;45916;52.734;6.544;2023-05-07T12:24:10;25.92;;;23.15;;
60038;SDS011;45916;52.734;6.544;2023-05-07T12:26:38;25.65;;;22.98;;
60038;SDS011;45916;52.734;6.544;2023-05-07T12:29:05;24.77;;;22.25;;
60038;SDS011;45916;52.734;6.544;2023-05-07T12:31:31;27.25;;;24.48;;
60038;SDS011;45916;52.734;6.544;2023-05-07T12:33:57;26.85;;;24.08;;
60038;SDS011;45916;52.734;6.544;2023-05-07T12:36:23;26.23;;;23.63;;
60038;SDS011;45916;52.734;6.544;2023-05-07T12:38:50;26.23;;;23.63;;
60038;SDS011;45916;52.734;6.544;2023-05-07T12:41:16;26.10;;;23.40;;
60038;SDS011;45916;52.734;6.544;2023-05-07T12:43:44;27.95;;;25.05;;
60038;SDS011;45916;52.734;6.544;2023-05-07T12:46:11;29.40;;;26.33;;
60038;SDS011;45916;52.734;6.544;2023-05-07T12:51:08;27.98;;;24.33;;
60038;SDS011;45916;52.734;6.544;2023-05-07T12:53:39;26.17;;;22.93;;
60038;SDS011;45916;52.734;6.544;2023-05-07T12:56:07;28.73;;;25.73;;
60038;SDS011;45916;52.734;6.544;2023-05-07T12:58:33;26.02;;;23.30;;
60038;SDS011;45916;52.734;6.544;2023-05-07T13:01:01;27.67;;;24.27;;
60038;SDS011;45916;52.734;6.544;2023-05-07T13:03:34;27.38;;;24.52;;
60038;SDS011;45916;52.734;6.544;2023-05-07T13:06:05;27.77;;;24.73;;
60038;SDS011;45916;52.734;6.544;2023-05-07T13:08:35;26.00;;;23.42;;
60038;SDS011;45916;52.734;6.544;2023-05-07T13:11:07;26.23;;;23.63;;
60038;SDS011;45916;52.734;6.544;2023-05-07T13:13:34;25.00;;;22.50;;
60038;SDS011;45916;52.734;6.544;2023-05-07T13:16:04;25.73;;;23.25;;
60038;SDS011;45916;52.734;6.544;2023-05-07T13:18:31;25.25;;;22.65;;
60038;SDS011;45916;52.734;6.544;2023-05-07T13:20:58;27.02;;;24.17;;
60038;SDS011;45916;52.734;6.544;2023-05-07T13:23:25;26.60;;;23.90;;
60038;SDS011;45916;52.734;6.544;2023-05-07T13:25:51;25.52;;;22.83;;
60038;SDS011;45916;52.734;6.544;2023-05-07T13:28:19;26.25;;;23.45;;
60038;SDS011;45916;52.734;6.544;2023-05-07T13:30:45;25.10;;;22.48;;
60038;SDS011;45916;52.734;6.544;2023-05-07T13:33:11;26.25;;;23.50;;
60038;SDS011;45916;52.734;6.544;2023-05-07T13:35:37;26.40;;;23.73;;
60038;SDS011;45916;52.734;6.544;2023-05-07T13:38:03;28.80;;;25.98;;
60038;SDS011;45916;52.734;6.544;2023-05-07T13:40:29;26.83;;;24.05;;
60038;SDS011;45916;52.734;6.544;2023-05-07T13:42:56;28.73;;;25.75;;
60038;SDS011;45916;52.734;6.544;2023-05-07T13:47:50;26.95;;;24.10;;
60038;SDS011;45916;52.734;6.544;2023-05-07T13:50:17;27.80;;;25.00;;
60038;SDS011;45916;52.734;6.544;2023-05-07T13:52:43;27.50;;;24.60;;
60038;SDS011;45916;52.734;6.544;2023-05-07T13:55:19;26.80;;;23.90;;
60038;SDS011;45916;52.734;6.544;2023-05-07T13:57:46;26.13;;;23.42;;
60038;SDS011;45916;52.734;6.544;2023-05-07T14:00:12;26.75;;;23.80;;
60038;SDS011;45916;52.734;6.544;2023-05-07T14:02:39;26.67;;;23.97;;
60038;SDS011;45916;52.734;6.544;2023-05-07T14:05:05;27.08;;;24.17;;
60038;SDS011;45916;52.734;6.544;2023-05-07T14:07:32;27.85;;;24.95;;
60038;SDS011;45916;52.734;6.544;2023-05-07T14:09:57;27.77;;;24.88;;
60038;SDS011;45916;52.734;6.544;2023-05-07T14:12:23;25.48;;;22.88;;
60038;SDS011;45916;52.734;6.544;2023-05-07T14:14:49;25.63;;;22.98;;
60038;SDS011;45916;52.734;6.544;2023-05-07T14:17:18;26.27;;;23.55;;
60038;SDS011;45916;52.734;6.544;2023-05-07T14:19:45;23.92;;;21.48;;
60038;SDS011;45916;52.734;6.544;2023-05-07T14:22:10;27.17;;;24.33;;
60038;SDS011;45916;52.734;6.544;2023-05-07T14:24:38;26.33;;;23.73;;
60038;SDS011;45916;52.734;6.544;2023-05-07T14:27:04;26.13;;;23.50;;
60038;SDS011;45916;52.734;6.544;2023-05-07T14:29:30;24.50;;;22.00;;
60038;SDS011;45916;52.734;6.544;2023-05-07T14:31:56;24.30;;;21.80;;
60038;SDS011;45916;52.734;6.544;2023-05-07T14:34:22;22.75;;;20.33;;
60038;SDS011;45916;52.734;6.544;2023-05-07T14:36:47;21.60;;;19.40;;
60038;SDS011;45916;52.734;6.544;2023-05-07T14:39:13;22.17;;;19.98;;
60038;SDS011;45916;52.734;6.544;2023-05-07T14:41:39;22.58;;;20.27;;